sensor_id;sensor_type;location;lat;lon;timestamp;P1;durP1;ratioP1;P2;durP2;ratioP2
58581;SDS011;44361;51.476;5.700;2022-10-26T00:02:20;14.30;;;6.65;;
58581;SDS011;44361;51.476;5.700;2022-10-26T00:04:46;11.80;;;6.93;;
58581;SDS011;44361;51.476;5.700;2022-10-26T00:07:11;15.38;;;7.32;;
58581;SDS011;44361;51.476;5.700;2022-10-26T00:09:37;17.55;;;7.18;;
58581;SDS011;44361;51.476;5.700;2022-10-26T00:12:02;16.00;;;7.05;;
58581;SDS011;44361;51.476;5.700;2022-10-26T00:14:28;13.63;;;6.97;;
58581;SDS011;44361;51.476;5.700;2022-10-26T00:16:54;16.70;;;6.57;;
58581;SDS011;44361;51.476;5.700;2022-10-26T00:19:19;17.27;;;7.45;;
58581;SDS011;44361;51.476;5.700;2022-10-26T00:21:45;15.38;;;7.53;;
58581;SDS011;44361;51.476;5.700;2022-10-26T00:24:10;12.95;;;7.05;;
58581;SDS011;44361;51.476;5.700;2022-10-26T00:26:36;15.60;;;7.55;;
58581;SDS011;44361;51.476;5.700;2022-10-26T00:29:03;18.27;;;7.43;;
58581;SDS011;44361;51.476;5.700;2022-10-26T00:31:29;14.43;;;7.18;;
58581;SDS011;44361;51.476;5.700;2022-10-26T00:33:54;14.95;;;6.45;;
58581;SDS011;44361;51.476;5.700;2022-10-26T00:36:21;13.90;;;7.22;;
58581;SDS011;44361;51.476;5.700;2022-10-26T00:38:49;13.55;;;7.18;;
58581;SDS011;44361;51.476;5.700;2022-10-26T00:41:20;14.45;;;6.50;;
58581;SDS011;44361;51.476;5.700;2022-10-26T00:43:51;21.17;;;7.22;;
58581;SDS011;44361;51.476;5.700;2022-10-26T00:46:22;12.00;;;6.15;;
58581;SDS011;44361;51.476;5.700;2022-10-26T00:49:12;11.63;;;5.95;;
58581;SDS011;44361;51.476;5.700;2022-10-26T00:51:43;11.15;;;5.88;;
58581;SDS011;44361;51.476;5.700;2022-10-26T00:54:17;13.82;;;6.22;;
58581;SDS011;44361;51.476;5.700;2022-10-26T00:56:45;10.60;;;5.40;;
58581;SDS011;44361;51.476;5.700;2022-10-26T00:59:14;12.05;;;5.07;;
58581;SDS011;44361;51.476;5.700;2022-10-26T01:01:45;11.95;;;5.32;;
58581;SDS011;44361;51.476;5.700;2022-10-26T01:04:12;17.05;;;5.80;;
58581;SDS011;44361;51.476;5.700;2022-10-26T01:06:38;16.42;;;5.30;;
58581;SDS011;44361;51.476;5.700;2022-10-26T01:09:06;14.82;;;5.28;;
58581;SDS011;44361;51.476;5.700;2022-10-26T01:11:31;9.68;;;5.28;;
58581;SDS011;44361;51.476;5.700;2022-10-26T01:13:57;11.00;;;5.07;;
58581;SDS011;44361;51.476;5.700;2022-10-26T01:19:29;11.63;;;4.90;;
58581;SDS011;44361;51.476;5.700;2022-10-26T01:31:27;8.55;;;4.43;;
58581;SDS011;44361;51.476;5.700;2022-10-26T01:34:00;13.48;;;4.88;;
58581;SDS011;44361;51.476;5.700;2022-10-26T01:36:43;10.65;;;4.30;;
58581;SDS011;44361;51.476;5.700;2022-10-26T01:39:15;12.02;;;4.25;;
58581;SDS011;44361;51.476;5.700;2022-10-26T01:41:48;10.00;;;4.50;;
58581;SDS011;44361;51.476;5.700;2022-10-26T01:44:37;21.52;;;4.80;;
58581;SDS011;44361;51.476;5.700;2022-10-26T01:47:08;6.38;;;4.22;;
58581;SDS011;44361;51.476;5.700;2022-10-26T01:49:47;11.18;;;4.85;;
58581;SDS011;44361;51.476;5.700;2022-10-26T01:52:19;10.40;;;4.57;;
58581;SDS011;44361;51.476;5.700;2022-10-26T01:54:45;14.20;;;4.53;;
58581;SDS011;44361;51.476;5.700;2022-10-26T01:57:12;14.02;;;4.85;;
58581;SDS011;44361;51.476;5.700;2022-10-26T02:11:56;10.10;;;3.88;;
58581;SDS011;44361;51.476;5.700;2022-10-26T02:16:55;14.25;;;4.35;;
58581;SDS011;44361;51.476;5.700;2022-10-26T02:21:51;9.40;;;4.07;;
58581;SDS011;44361;51.476;5.700;2022-10-26T02:24:22;9.85;;;3.97;;
58581;SDS011;44361;51.476;5.700;2022-10-26T02:26:49;11.93;;;4.25;;
58581;SDS011;44361;51.476;5.700;2022-10-26T02:29:17;10.88;;;4.10;;
58581;SDS011;44361;51.476;5.700;2022-10-26T02:31:44;11.90;;;4.07;;
58581;SDS011;44361;51.476;5.700;2022-10-26T02:34:12;15.82;;;4.25;;
58581;SDS011;44361;51.476;5.700;2022-10-26T02:36:42;9.43;;;3.92;;
58581;SDS011;44361;51.476;5.700;2022-10-26T02:39:11;14.18;;;3.70;;
58581;SDS011;44361;51.476;5.700;2022-10-26T02:41:40;12.50;;;4.38;;
58581;SDS011;44361;51.476;5.700;2022-10-26T02:44:52;11.10;;;4.05;;
58581;SDS011;44361;51.476;5.700;2022-10-26T02:47:04;8.57;;;3.45;;
58581;SDS011;44361;51.476;5.700;2022-10-26T02:49:29;8.07;;;3.95;;
58581;SDS011;44361;51.476;5.700;2022-10-26T02:52:00;12.82;;;3.75;;
58581;SDS011;44361;51.476;5.700;2022-10-26T02:54:35;12.90;;;4.18;;
58581;SDS011;44361;51.476;5.700;2022-10-26T02:57:25;10.15;;;3.53;;
58581;SDS011;44361;51.476;5.700;2022-10-26T02:59:57;12.57;;;4.07;;
58581;SDS011;44361;51.476;5.700;2022-10-26T03:02:23;12.05;;;3.78;;
58581;SDS011;44361;51.476;5.700;2022-10-26T03:04:50;11.52;;;3.05;;
58581;SDS011;44361;51.476;5.700;2022-10-26T03:07:23;11.90;;;4.22;;
58581;SDS011;44361;51.476;5.700;2022-10-26T03:09:50;10.77;;;4.25;;
58581;SDS011;44361;51.476;5.700;2022-10-26T03:12:15;9.43;;;3.72;;
58581;SDS011;44361;51.476;5.700;2022-10-26T03:14:41;9.20;;;3.63;;
58581;SDS011;44361;51.476;5.700;2022-10-26T03:17:06;10.30;;;3.45;;
58581;SDS011;44361;51.476;5.700;2022-10-26T03:19:32;9.65;;;3.65;;
58581;SDS011;44361;51.476;5.700;2022-10-26T03:21:58;8.00;;;3.83;;
58581;SDS011;44361;51.476;5.700;2022-10-26T03:24:23;8.48;;;3.72;;
58581;SDS011;44361;51.476;5.700;2022-10-26T03:26:49;10.68;;;4.35;;
58581;SDS011;44361;51.476;5.700;2022-10-26T03:29:14;10.35;;;4.00;;
58581;SDS011;44361;51.476;5.700;2022-10-26T03:31:40;8.80;;;3.90;;
58581;SDS011;44361;51.476;5.700;2022-10-26T03:34:05;11.43;;;4.65;;
58581;SDS011;44361;51.476;5.700;2022-10-26T03:36:31;8.95;;;3.38;;
58581;SDS011;44361;51.476;5.700;2022-10-26T03:38:57;6.28;;;3.90;;
58581;SDS011;44361;51.476;5.700;2022-10-26T03:41:22;7.70;;;3.53;;
58581;SDS011;44361;51.476;5.700;2022-10-26T03:43:48;11.05;;;4.22;;
58581;SDS011;44361;51.476;5.700;2022-10-26T03:46:13;11.75;;;4.00;;
58581;SDS011;44361;51.476;5.700;2022-10-26T03:48:39;10.75;;;3.65;;
58581;SDS011;44361;51.476;5.700;2022-10-26T03:51:04;11.55;;;3.60;;
58581;SDS011;44361;51.476;5.700;2022-10-26T03:53:30;9.13;;;3.72;;
58581;SDS011;44361;51.476;5.700;2022-10-26T03:55:56;13.93;;;4.43;;
58581;SDS011;44361;51.476;5.700;2022-10-26T03:58:21;12.15;;;3.97;;
58581;SDS011;44361;51.476;5.700;2022-10-26T04:00:47;14.75;;;4.78;;
58581;SDS011;44361;51.476;5.700;2022-10-26T04:03:12;10.20;;;4.35;;
58581;SDS011;44361;51.476;5.700;2022-10-26T04:05:38;8.23;;;3.75;;
58581;SDS011;44361;51.476;5.700;2022-10-26T04:08:03;9.75;;;4.38;;
58581;SDS011;44361;51.476;5.700;2022-10-26T04:10:29;9.98;;;4.80;;
58581;SDS011;44361;51.476;5.700;2022-10-26T04:12:55;9.30;;;4.65;;
58581;SDS011;44361;51.476;5.700;2022-10-26T04:15:22;13.20;;;4.80;;
58581;SDS011;44361;51.476;5.700;2022-10-26T04:17:53;15.98;;;4.47;;
58581;SDS011;44361;51.476;5.700;2022-10-26T04:20:23;10.50;;;4.53;;
58581;SDS011;44361;51.476;5.700;2022-10-26T04:23:05;7.13;;;4.40;;
58581;SDS011;44361;51.476;5.700;2022-10-26T04:25:31;10.15;;;4.63;;
58581;SDS011;44361;51.476;5.700;2022-10-26T04:27:58;13.35;;;5.60;;
58581;SDS011;44361;51.476;5.700;2022-10-26T04:30:25;13.35;;;4.47;;
58581;SDS011;44361;51.476;5.700;2022-10-26T04:32:50;10.32;;;4.15;;
58581;SDS011;44361;51.476;5.700;2022-10-26T04:35:16;12.15;;;4.57;;
58581;SDS011;44361;51.476;5.700;2022-10-26T04:37:41;15.43;;;5.45;;
58581;SDS011;44361;51.476;5.700;2022-10-26T04:40:07;11.18;;;4.93;;
58581;SDS011;44361;51.476;5.700;2022-10-26T04:42:42;12.20;;;5.45;;
58581;SDS011;44361;51.476;5.700;2022-10-26T04:45:09;11.43;;;4.47;;
58581;SDS011;44361;51.476;5.700;2022-10-26T04:47:36;9.55;;;4.72;;
58581;SDS011;44361;51.476;5.700;2022-10-26T04:50:02;10.75;;;4.88;;
58581;SDS011;44361;51.476;5.700;2022-10-26T04:52:28;10.88;;;4.93;;
58581;SDS011;44361;51.476;5.700;2022-10-26T04:54:54;12.75;;;5.60;;
58581;SDS011;44361;51.476;5.700;2022-10-26T04:57:19;12.70;;;4.95;;
58581;SDS011;44361;51.476;5.700;2022-10-26T04:59:45;10.73;;;5.05;;
58581;SDS011;44361;51.476;5.700;2022-10-26T05:02:10;10.20;;;5.38;;
58581;SDS011;44361;51.476;5.700;2022-10-26T05:04:36;9.43;;;4.22;;
58581;SDS011;44361;51.476;5.700;2022-10-26T05:07:01;10.93;;;4.43;;
58581;SDS011;44361;51.476;5.700;2022-10-26T05:09:27;11.00;;;4.70;;
58581;SDS011;44361;51.476;5.700;2022-10-26T05:11:53;9.75;;;4.95;;
58581;SDS011;44361;51.476;5.700;2022-10-26T05:14:18;13.77;;;5.15;;
58581;SDS011;44361;51.476;5.700;2022-10-26T05:16:44;8.90;;;4.30;;
58581;SDS011;44361;51.476;5.700;2022-10-26T05:19:09;12.48;;;4.80;;
58581;SDS011;44361;51.476;5.700;2022-10-26T05:21:35;11.00;;;5.10;;
58581;SDS011;44361;51.476;5.700;2022-10-26T05:24:00;14.55;;;5.30;;
58581;SDS011;44361;51.476;5.700;2022-10-26T05:26:26;9.57;;;4.35;;
58581;SDS011;44361;51.476;5.700;2022-10-26T05:28:52;14.05;;;4.50;;
58581;SDS011;44361;51.476;5.700;2022-10-26T05:31:18;9.23;;;4.07;;
58581;SDS011;44361;51.476;5.700;2022-10-26T05:33:47;10.98;;;4.78;;
58581;SDS011;44361;51.476;5.700;2022-10-26T05:36:14;8.90;;;4.20;;
58581;SDS011;44361;51.476;5.700;2022-10-26T05:38:40;13.02;;;3.80;;
58581;SDS011;44361;51.476;5.700;2022-10-26T05:41:06;9.63;;;4.25;;
58581;SDS011;44361;51.476;5.700;2022-10-26T05:43:31;12.85;;;4.40;;
58581;SDS011;44361;51.476;5.700;2022-10-26T05:45:57;12.77;;;4.13;;
58581;SDS011;44361;51.476;5.700;2022-10-26T05:48:22;15.68;;;4.93;;
58581;SDS011;44361;51.476;5.700;2022-10-26T05:50:48;13.95;;;4.63;;
58581;SDS011;44361;51.476;5.700;2022-10-26T05:53:14;11.05;;;4.47;;
58581;SDS011;44361;51.476;5.700;2022-10-26T05:55:39;13.25;;;4.43;;
58581;SDS011;44361;51.476;5.700;2022-10-26T05:58:12;16.67;;;4.38;;
58581;SDS011;44361;51.476;5.700;2022-10-26T06:06:18;10.25;;;4.47;;
58581;SDS011;44361;51.476;5.700;2022-10-26T06:08:46;12.95;;;5.43;;
58581;SDS011;44361;51.476;5.700;2022-10-26T06:11:12;11.27;;;4.35;;
58581;SDS011;44361;51.476;5.700;2022-10-26T06:13:38;8.55;;;4.32;;
58581;SDS011;44361;51.476;5.700;2022-10-26T06:21:23;9.10;;;3.97;;
58581;SDS011;44361;51.476;5.700;2022-10-26T06:23:53;10.55;;;4.50;;
58581;SDS011;44361;51.476;5.700;2022-10-26T06:29:20;10.70;;;4.20;;
58581;SDS011;44361;51.476;5.700;2022-10-26T06:32:06;14.82;;;4.80;;
58581;SDS011;44361;51.476;5.700;2022-10-26T06:34:36;10.05;;;4.13;;
58581;SDS011;44361;51.476;5.700;2022-10-26T06:37:07;11.25;;;4.43;;
58581;SDS011;44361;51.476;5.700;2022-10-26T06:39:34;7.32;;;3.97;;
58581;SDS011;44361;51.476;5.700;2022-10-26T06:42:03;8.80;;;4.93;;
58581;SDS011;44361;51.476;5.700;2022-10-26T06:44:30;9.32;;;4.07;;
58581;SDS011;44361;51.476;5.700;2022-10-26T06:47:04;11.52;;;4.05;;
58581;SDS011;44361;51.476;5.700;2022-10-26T06:54:59;12.98;;;4.28;;
58581;SDS011;44361;51.476;5.700;2022-10-26T06:57:32;12.23;;;4.70;;
58581;SDS011;44361;51.476;5.700;2022-10-26T07:00:01;8.05;;;4.05;;
58581;SDS011;44361;51.476;5.700;2022-10-26T07:02:31;10.73;;;4.38;;
58581;SDS011;44361;51.476;5.700;2022-10-26T07:04:56;11.93;;;4.55;;
58581;SDS011;44361;51.476;5.700;2022-10-26T07:07:23;12.63;;;4.05;;
58581;SDS011;44361;51.476;5.700;2022-10-26T07:09:50;12.50;;;4.90;;
58581;SDS011;44361;51.476;5.700;2022-10-26T07:12:16;17.02;;;4.43;;
58581;SDS011;44361;51.476;5.700;2022-10-26T07:14:42;10.05;;;4.35;;
58581;SDS011;44361;51.476;5.700;2022-10-26T07:17:07;15.90;;;4.25;;
58581;SDS011;44361;51.476;5.700;2022-10-26T07:19:35;10.32;;;3.88;;
58581;SDS011;44361;51.476;5.700;2022-10-26T07:22:00;8.40;;;3.97;;
58581;SDS011;44361;51.476;5.700;2022-10-26T07:24:26;17.35;;;3.95;;
58581;SDS011;44361;51.476;5.700;2022-10-26T07:26:53;8.57;;;3.42;;
58581;SDS011;44361;51.476;5.700;2022-10-26T07:29:19;6.13;;;3.15;;
58581;SDS011;44361;51.476;5.700;2022-10-26T07:31:46;8.77;;;3.33;;
58581;SDS011;44361;51.476;5.700;2022-10-26T07:34:11;9.48;;;3.95;;
58581;SDS011;44361;51.476;5.700;2022-10-26T07:36:37;7.03;;;3.63;;
58581;SDS011;44361;51.476;5.700;2022-10-26T07:39:03;8.13;;;3.67;;
58581;SDS011;44361;51.476;5.700;2022-10-26T07:41:29;10.80;;;3.72;;
58581;SDS011;44361;51.476;5.700;2022-10-26T07:43:55;12.05;;;4.25;;
58581;SDS011;44361;51.476;5.700;2022-10-26T07:46:20;7.10;;;3.20;;
58581;SDS011;44361;51.476;5.700;2022-10-26T07:48:46;12.43;;;3.90;;
58581;SDS011;44361;51.476;5.700;2022-10-26T07:51:11;6.53;;;3.67;;
58581;SDS011;44361;51.476;5.700;2022-10-26T07:53:37;11.65;;;3.63;;
58581;SDS011;44361;51.476;5.700;2022-10-26T07:56:03;9.18;;;3.50;;
58581;SDS011;44361;51.476;5.700;2022-10-26T07:58:28;11.10;;;4.28;;
58581;SDS011;44361;51.476;5.700;2022-10-26T08:00:54;7.63;;;4.00;;
58581;SDS011;44361;51.476;5.700;2022-10-26T08:03:20;11.13;;;3.75;;
58581;SDS011;44361;51.476;5.700;2022-10-26T08:05:46;9.27;;;3.72;;
58581;SDS011;44361;51.476;5.700;2022-10-26T08:08:15;8.73;;;4.05;;
58581;SDS011;44361;51.476;5.700;2022-10-26T08:10:42;10.70;;;3.65;;
58581;SDS011;44361;51.476;5.700;2022-10-26T08:13:08;6.55;;;3.80;;
58581;SDS011;44361;51.476;5.700;2022-10-26T08:15:34;9.73;;;3.92;;
58581;SDS011;44361;51.476;5.700;2022-10-26T08:18:00;9.45;;;3.47;;
58581;SDS011;44361;51.476;5.700;2022-10-26T08:20:25;7.78;;;3.80;;
58581;SDS011;44361;51.476;5.700;2022-10-26T08:22:51;11.30;;;4.10;;
58581;SDS011;44361;51.476;5.700;2022-10-26T08:25:17;7.45;;;3.38;;
58581;SDS011;44361;51.476;5.700;2022-10-26T08:27:43;4.95;;;3.30;;
58581;SDS011;44361;51.476;5.700;2022-10-26T08:30:08;8.85;;;3.50;;
58581;SDS011;44361;51.476;5.700;2022-10-26T08:32:34;7.15;;;3.20;;
58581;SDS011;44361;51.476;5.700;2022-10-26T08:35:00;11.35;;;3.63;;
58581;SDS011;44361;51.476;5.700;2022-10-26T08:37:25;6.85;;;3.47;;
58581;SDS011;44361;51.476;5.700;2022-10-26T08:39:51;6.05;;;3.15;;
58581;SDS011;44361;51.476;5.700;2022-10-26T08:45:10;6.22;;;2.65;;
58581;SDS011;44361;51.476;5.700;2022-10-26T08:47:48;8.60;;;3.35;;
58581;SDS011;44361;51.476;5.700;2022-10-26T08:50:22;7.22;;;2.88;;
58581;SDS011;44361;51.476;5.700;2022-10-26T08:55:42;7.55;;;3.00;;
58581;SDS011;44361;51.476;5.700;2022-10-26T08:58:13;8.45;;;2.72;;
58581;SDS011;44361;51.476;5.700;2022-10-26T09:00:41;8.13;;;2.35;;
58581;SDS011;44361;51.476;5.700;2022-10-26T09:03:10;8.27;;;2.38;;
58581;SDS011;44361;51.476;5.700;2022-10-26T09:08:14;5.78;;;1.85;;
58581;SDS011;44361;51.476;5.700;2022-10-26T09:11:07;8.73;;;2.22;;
58581;SDS011;44361;51.476;5.700;2022-10-26T09:13:51;8.38;;;2.20;;
58581;SDS011;44361;51.476;5.700;2022-10-26T09:16:26;4.93;;;2.00;;
58581;SDS011;44361;51.476;5.700;2022-10-26T09:21:49;7.68;;;2.22;;
58581;SDS011;44361;51.476;5.700;2022-10-26T09:24:37;8.40;;;2.15;;
58581;SDS011;44361;51.476;5.700;2022-10-26T09:29:51;6.23;;;1.93;;
58581;SDS011;44361;51.476;5.700;2022-10-26T09:33:01;5.88;;;1.98;;
58581;SDS011;44361;51.476;5.700;2022-10-26T09:38:00;11.43;;;1.77;;
58581;SDS011;44361;51.476;5.700;2022-10-26T09:40:35;6.65;;;2.10;;
58581;SDS011;44361;51.476;5.700;2022-10-26T09:46:20;6.13;;;1.70;;
58581;SDS011;44361;51.476;5.700;2022-10-26T09:48:53;9.57;;;2.00;;
58581;SDS011;44361;51.476;5.700;2022-10-26T09:51:22;6.25;;;1.83;;
58581;SDS011;44361;51.476;5.700;2022-10-26T09:53:48;3.90;;;1.48;;
58581;SDS011;44361;51.476;5.700;2022-10-26T09:56:14;5.28;;;1.73;;
58581;SDS011;44361;51.476;5.700;2022-10-26T09:58:55;6.60;;;2.40;;
58581;SDS011;44361;51.476;5.700;2022-10-26T10:06:46;5.60;;;1.70;;
58581;SDS011;44361;51.476;5.700;2022-10-26T10:09:15;8.32;;;1.95;;
58581;SDS011;44361;51.476;5.700;2022-10-26T10:14:28;5.72;;;1.90;;
58581;SDS011;44361;51.476;5.700;2022-10-26T10:17:03;12.02;;;2.05;;
58581;SDS011;44361;51.476;5.700;2022-10-26T10:19:33;6.65;;;1.50;;
58581;SDS011;44361;51.476;5.700;2022-10-26T10:22:00;4.50;;;1.75;;
58581;SDS011;44361;51.476;5.700;2022-10-26T10:24:35;7.25;;;1.60;;
58581;SDS011;44361;51.476;5.700;2022-10-26T10:29:42;4.40;;;1.88;;
58581;SDS011;44361;51.476;5.700;2022-10-26T10:32:16;7.90;;;1.67;;
58581;SDS011;44361;51.476;5.700;2022-10-26T10:34:51;5.88;;;1.45;;
58581;SDS011;44361;51.476;5.700;2022-10-26T10:37:25;9.00;;;1.65;;
58581;SDS011;44361;51.476;5.700;2022-10-26T10:39:59;7.47;;;1.70;;
58581;SDS011;44361;51.476;5.700;2022-10-26T10:42:41;4.45;;;1.60;;
58581;SDS011;44361;51.476;5.700;2022-10-26T10:50:57;6.85;;;1.80;;
58581;SDS011;44361;51.476;5.700;2022-10-26T10:53:28;4.72;;;1.60;;
58581;SDS011;44361;51.476;5.700;2022-10-26T11:07:05;3.25;;;1.60;;
58581;SDS011;44361;51.476;5.700;2022-10-26T11:09:32;8.75;;;1.70;;
58581;SDS011;44361;51.476;5.700;2022-10-26T11:12:17;8.68;;;1.73;;
58581;SDS011;44361;51.476;5.700;2022-10-26T11:14:51;5.32;;;1.40;;
58581;SDS011;44361;51.476;5.700;2022-10-26T11:17:26;4.40;;;1.23;;
58581;SDS011;44361;51.476;5.700;2022-10-26T11:20:05;5.13;;;1.50;;
58581;SDS011;44361;51.476;5.700;2022-10-26T11:22:40;4.90;;;1.27;;
58581;SDS011;44361;51.476;5.700;2022-10-26T11:25:17;3.45;;;1.10;;
58581;SDS011;44361;51.476;5.700;2022-10-26T11:27:53;6.70;;;1.58;;
58581;SDS011;44361;51.476;5.700;2022-10-26T11:30:23;7.40;;;1.48;;
58581;SDS011;44361;51.476;5.700;2022-10-26T11:32:51;5.40;;;1.35;;
58581;SDS011;44361;51.476;5.700;2022-10-26T11:35:40;7.97;;;1.35;;
58581;SDS011;44361;51.476;5.700;2022-10-26T11:38:14;3.67;;;0.95;;
58581;SDS011;44361;51.476;5.700;2022-10-26T11:41:07;5.18;;;1.55;;
58581;SDS011;44361;51.476;5.700;2022-10-26T11:43:44;6.55;;;1.42;;
58581;SDS011;44361;51.476;5.700;2022-10-26T11:46:27;7.95;;;1.55;;
58581;SDS011;44361;51.476;5.700;2022-10-26T11:49:13;6.97;;;1.40;;
58581;SDS011;44361;51.476;5.700;2022-10-26T11:54:15;5.68;;;1.23;;
58581;SDS011;44361;51.476;5.700;2022-10-26T11:56:47;6.07;;;1.40;;
58581;SDS011;44361;51.476;5.700;2022-10-26T11:59:20;4.57;;;1.38;;
58581;SDS011;44361;51.476;5.700;2022-10-26T12:02:12;4.95;;;1.63;;
58581;SDS011;44361;51.476;5.700;2022-10-26T12:04:40;8.15;;;1.52;;
58581;SDS011;44361;51.476;5.700;2022-10-26T12:07:12;3.83;;;1.40;;
58581;SDS011;44361;51.476;5.700;2022-10-26T12:09:44;5.13;;;1.30;;
58581;SDS011;44361;51.476;5.700;2022-10-26T12:14:47;3.40;;;1.40;;
58581;SDS011;44361;51.476;5.700;2022-10-26T12:23:10;3.20;;;1.40;;
58581;SDS011;44361;51.476;5.700;2022-10-26T12:25:36;3.60;;;1.00;;
58581;SDS011;44361;51.476;5.700;2022-10-26T12:28:03;4.38;;;1.00;;
58581;SDS011;44361;51.476;5.700;2022-10-26T12:30:33;6.13;;;1.13;;
58581;SDS011;44361;51.476;5.700;2022-10-26T12:33:01;4.80;;;1.27;;
58581;SDS011;44361;51.476;5.700;2022-10-26T12:35:47;5.22;;;1.50;;
58581;SDS011;44361;51.476;5.700;2022-10-26T12:43:43;3.92;;;0.80;;
58581;SDS011;44361;51.476;5.700;2022-10-26T12:56:55;6.20;;;1.45;;
58581;SDS011;44361;51.476;5.700;2022-10-26T12:59:36;7.55;;;1.27;;
58581;SDS011;44361;51.476;5.700;2022-10-26T13:07:36;3.47;;;1.10;;
58581;SDS011;44361;51.476;5.700;2022-10-26T13:10:24;4.72;;;0.98;;
58581;SDS011;44361;51.476;5.700;2022-10-26T13:12:57;6.20;;;1.00;;
58581;SDS011;44361;51.476;5.700;2022-10-26T13:15:28;3.53;;;1.23;;
58581;SDS011;44361;51.476;5.700;2022-10-26T13:20:34;4.82;;;1.50;;
58581;SDS011;44361;51.476;5.700;2022-10-26T13:23:02;4.30;;;1.25;;
58581;SDS011;44361;51.476;5.700;2022-10-26T13:25:39;3.88;;;0.90;;
58581;SDS011;44361;51.476;5.700;2022-10-26T13:28:06;4.32;;;1.00;;
58581;SDS011;44361;51.476;5.700;2022-10-26T13:30:50;6.13;;;0.98;;
58581;SDS011;44361;51.476;5.700;2022-10-26T13:33:20;4.38;;;1.08;;
58581;SDS011;44361;51.476;5.700;2022-10-26T13:35:54;2.78;;;0.80;;
58581;SDS011;44361;51.476;5.700;2022-10-26T13:38:22;3.17;;;0.90;;
58581;SDS011;44361;51.476;5.700;2022-10-26T13:41:03;5.25;;;1.10;;
58581;SDS011;44361;51.476;5.700;2022-10-26T13:43:31;3.78;;;0.95;;
58581;SDS011;44361;51.476;5.700;2022-10-26T13:45:58;6.72;;;1.13;;
58581;SDS011;44361;51.476;5.700;2022-10-26T13:48:38;3.95;;;0.95;;
58581;SDS011;44361;51.476;5.700;2022-10-26T13:51:09;2.92;;;0.95;;
58581;SDS011;44361;51.476;5.700;2022-10-26T13:54:15;4.10;;;0.85;;
58581;SDS011;44361;51.476;5.700;2022-10-26T13:56:58;5.45;;;1.20;;
58581;SDS011;44361;51.476;5.700;2022-10-26T13:59:32;3.40;;;0.70;;
58581;SDS011;44361;51.476;5.700;2022-10-26T14:04:50;2.03;;;0.85;;
58581;SDS011;44361;51.476;5.700;2022-10-26T14:07:19;2.90;;;0.80;;
58581;SDS011;44361;51.476;5.700;2022-10-26T14:09:48;2.63;;;0.90;;
58581;SDS011;44361;51.476;5.700;2022-10-26T14:12:15;3.20;;;0.80;;
58581;SDS011;44361;51.476;5.700;2022-10-26T14:14:41;2.25;;;0.68;;
58581;SDS011;44361;51.476;5.700;2022-10-26T14:17:13;5.30;;;0.80;;
58581;SDS011;44361;51.476;5.700;2022-10-26T14:19:46;2.20;;;0.80;;
58581;SDS011;44361;51.476;5.700;2022-10-26T14:22:23;4.70;;;1.60;;
58581;SDS011;44361;51.476;5.700;2022-10-26T14:24:52;2.88;;;0.82;;
58581;SDS011;44361;51.476;5.700;2022-10-26T14:27:21;4.32;;;0.90;;
58581;SDS011;44361;51.476;5.700;2022-10-26T14:29:57;6.00;;;0.90;;
58581;SDS011;44361;51.476;5.700;2022-10-26T14:32:28;3.40;;;0.93;;
58581;SDS011;44361;51.476;5.700;2022-10-26T14:34:56;5.30;;;1.17;;
58581;SDS011;44361;51.476;5.700;2022-10-26T14:40:12;7.68;;;1.60;;
58581;SDS011;44361;51.476;5.700;2022-10-26T14:42:48;4.03;;;0.60;;
58581;SDS011;44361;51.476;5.700;2022-10-26T14:45:22;3.63;;;0.70;;
58581;SDS011;44361;51.476;5.700;2022-10-26T14:47:52;3.45;;;0.90;;
58581;SDS011;44361;51.476;5.700;2022-10-26T14:50:19;6.00;;;1.08;;
58581;SDS011;44361;51.476;5.700;2022-10-26T14:52:50;2.22;;;0.77;;
58581;SDS011;44361;51.476;5.700;2022-10-26T14:55:19;6.88;;;1.27;;
58581;SDS011;44361;51.476;5.700;2022-10-26T14:57:45;2.65;;;0.73;;
58581;SDS011;44361;51.476;5.700;2022-10-26T15:00:16;3.30;;;0.93;;
58581;SDS011;44361;51.476;5.700;2022-10-26T15:02:48;5.63;;;0.80;;
58581;SDS011;44361;51.476;5.700;2022-10-26T15:05:29;3.95;;;0.77;;
58581;SDS011;44361;51.476;5.700;2022-10-26T15:07:57;2.95;;;1.33;;
58581;SDS011;44361;51.476;5.700;2022-10-26T15:16:05;3.53;;;0.90;;
58581;SDS011;44361;51.476;5.700;2022-10-26T15:18:34;5.65;;;1.30;;
58581;SDS011;44361;51.476;5.700;2022-10-26T15:21:01;4.38;;;1.20;;
58581;SDS011;44361;51.476;5.700;2022-10-26T15:23:31;4.00;;;1.00;;
58581;SDS011;44361;51.476;5.700;2022-10-26T15:25:57;5.07;;;0.98;;
58581;SDS011;44361;51.476;5.700;2022-10-26T15:33:25;7.95;;;1.30;;
58581;SDS011;44361;51.476;5.700;2022-10-26T15:36:06;7.80;;;1.48;;
58581;SDS011;44361;51.476;5.700;2022-10-26T15:38:37;5.30;;;1.70;;
58581;SDS011;44361;51.476;5.700;2022-10-26T15:41:03;4.35;;;1.10;;
58581;SDS011;44361;51.476;5.700;2022-10-26T15:43:30;8.60;;;1.90;;
58581;SDS011;44361;51.476;5.700;2022-10-26T15:45:55;4.10;;;1.02;;
58581;SDS011;44361;51.476;5.700;2022-10-26T15:48:23;4.32;;;1.00;;
58581;SDS011;44361;51.476;5.700;2022-10-26T15:50:53;5.47;;;1.13;;
58581;SDS011;44361;51.476;5.700;2022-10-26T15:53:20;6.38;;;1.15;;
58581;SDS011;44361;51.476;5.700;2022-10-26T15:55:50;6.43;;;1.63;;
58581;SDS011;44361;51.476;5.700;2022-10-26T15:58:17;5.82;;;1.80;;
58581;SDS011;44361;51.476;5.700;2022-10-26T16:00:43;3.53;;;1.50;;
58581;SDS011;44361;51.476;5.700;2022-10-26T16:03:12;9.52;;;2.10;;
58581;SDS011;44361;51.476;5.700;2022-10-26T16:05:45;7.47;;;2.17;;
58581;SDS011;44361;51.476;5.700;2022-10-26T16:08:13;8.48;;;1.95;;
58581;SDS011;44361;51.476;5.700;2022-10-26T16:10:41;3.53;;;1.02;;
58581;SDS011;44361;51.476;5.700;2022-10-26T16:13:11;7.93;;;1.35;;
58581;SDS011;44361;51.476;5.700;2022-10-26T16:15:37;4.25;;;1.45;;
58581;SDS011;44361;51.476;5.700;2022-10-26T16:18:03;4.60;;;1.23;;
58581;SDS011;44361;51.476;5.700;2022-10-26T16:20:28;9.52;;;1.60;;
58581;SDS011;44361;51.476;5.700;2022-10-26T16:22:54;4.30;;;1.60;;
58581;SDS011;44361;51.476;5.700;2022-10-26T16:25:21;10.13;;;3.17;;
58581;SDS011;44361;51.476;5.700;2022-10-26T16:27:48;10.85;;;3.00;;
58581;SDS011;44361;51.476;5.700;2022-10-26T16:30:15;7.22;;;2.60;;
58581;SDS011;44361;51.476;5.700;2022-10-26T16:32:41;6.85;;;2.30;;
58581;SDS011;44361;51.476;5.700;2022-10-26T16:35:07;9.32;;;2.58;;
58581;SDS011;44361;51.476;5.700;2022-10-26T16:37:33;8.57;;;2.58;;
58581;SDS011;44361;51.476;5.700;2022-10-26T16:39:59;7.35;;;2.15;;
58581;SDS011;44361;51.476;5.700;2022-10-26T16:42:25;5.95;;;2.03;;
58581;SDS011;44361;51.476;5.700;2022-10-26T16:44:52;5.78;;;1.95;;
58581;SDS011;44361;51.476;5.700;2022-10-26T16:47:18;8.07;;;1.60;;
58581;SDS011;44361;51.476;5.700;2022-10-26T16:49:43;6.22;;;1.50;;
58581;SDS011;44361;51.476;5.700;2022-10-26T16:52:09;11.27;;;3.47;;
58581;SDS011;44361;51.476;5.700;2022-10-26T16:54:35;15.57;;;2.55;;
58581;SDS011;44361;51.476;5.700;2022-10-26T16:57:01;8.45;;;2.00;;
58581;SDS011;44361;51.476;5.700;2022-10-26T16:59:27;9.98;;;2.65;;
58581;SDS011;44361;51.476;5.700;2022-10-26T17:01:52;7.22;;;1.77;;
58581;SDS011;44361;51.476;5.700;2022-10-26T17:04:18;8.85;;;2.55;;
58581;SDS011;44361;51.476;5.700;2022-10-26T17:06:43;9.40;;;2.20;;
58581;SDS011;44361;51.476;5.700;2022-10-26T17:09:09;7.93;;;2.20;;
58581;SDS011;44361;51.476;5.700;2022-10-26T17:11:35;5.53;;;1.92;;
58581;SDS011;44361;51.476;5.700;2022-10-26T17:14:00;9.57;;;1.90;;
58581;SDS011;44361;51.476;5.700;2022-10-26T17:16:26;7.47;;;1.77;;
58581;SDS011;44361;51.476;5.700;2022-10-26T17:18:51;4.07;;;1.80;;
58581;SDS011;44361;51.476;5.700;2022-10-26T17:21:19;9.60;;;2.10;;
58581;SDS011;44361;51.476;5.700;2022-10-26T17:23:51;8.10;;;2.28;;
58581;SDS011;44361;51.476;5.700;2022-10-26T17:26:17;7.88;;;2.10;;